sensor_id;sensor_type;location;lat;lon;timestamp;P1;durP1;ratioP1;P2;durP2;ratioP2
79074;SDS011;68476;42.710;23.388;2024-01-30T00:00:41;6.03;;;3.60;;
79074;SDS011;68476;42.710;23.388;2024-01-30T00:03:06;4.68;;;2.80;;
79074;SDS011;68476;42.710;23.388;2024-01-30T00:05:32;5.68;;;3.30;;
79074;SDS011;68476;42.710;23.388;2024-01-30T00:07:57;4.82;;;3.13;;
79074;SDS011;68476;42.710;23.388;2024-01-30T00:10:23;5.50;;;3.00;;
79074;SDS011;68476;42.710;23.388;2024-01-30T00:12:48;3.72;;;2.33;;
79074;SDS011;68476;42.710;23.388;2024-01-30T00:15:14;4.43;;;2.75;;
79074;SDS011;68476;42.710;23.388;2024-01-30T00:17:40;4.53;;;3.10;;
79074;SDS011;68476;42.710;23.388;2024-01-30T00:20:05;4.43;;;3.17;;
79074;SDS011;68476;42.710;23.388;2024-01-30T00:22:32;5.85;;;2.97;;
79074;SDS011;68476;42.710;23.388;2024-01-30T00:24:58;4.13;;;2.85;;
79074;SDS011;68476;42.710;23.388;2024-01-30T00:27:23;4.03;;;2.42;;
79074;SDS011;68476;42.710;23.388;2024-01-30T00:29:49;4.60;;;2.75;;
79074;SDS011;68476;42.710;23.388;2024-01-30T00:32:14;5.20;;;2.55;;
79074;SDS011;68476;42.710;23.388;2024-01-30T00:34:41;4.82;;;2.92;;
79074;SDS011;68476;42.710;23.388;2024-01-30T00:37:07;6.30;;;2.90;;
79074;SDS011;68476;42.710;23.388;2024-01-30T00:39:32;4.28;;;2.88;;
79074;SDS011;68476;42.710;23.388;2024-01-30T00:41:58;4.80;;;2.70;;
79074;SDS011;68476;42.710;23.388;2024-01-30T00:44:23;4.18;;;2.60;;
79074;SDS011;68476;42.710;23.388;2024-01-30T00:46:49;5.97;;;2.67;;
79074;SDS011;68476;42.710;23.388;2024-01-30T00:49:14;5.88;;;3.15;;
79074;SDS011;68476;42.710;23.388;2024-01-30T00:51:40;4.20;;;2.67;;
79074;SDS011;68476;42.710;23.388;2024-01-30T00:54:05;5.35;;;2.78;;
79074;SDS011;68476;42.710;23.388;2024-01-30T00:56:31;4.22;;;2.40;;
79074;SDS011;68476;42.710;23.388;2024-01-30T00:58:57;3.95;;;2.25;;
79074;SDS011;68476;42.710;23.388;2024-01-30T01:01:22;4.00;;;2.33;;
79074;SDS011;68476;42.710;23.388;2024-01-30T01:03:48;4.53;;;2.63;;
79074;SDS011;68476;42.710;23.388;2024-01-30T01:06:13;3.97;;;2.45;;
79074;SDS011;68476;42.710;23.388;2024-01-30T01:08:39;5.32;;;2.75;;
79074;SDS011;68476;42.710;23.388;2024-01-30T01:11:05;4.57;;;2.85;;
79074;SDS011;68476;42.710;23.388;2024-01-30T01:13:30;5.07;;;2.63;;
79074;SDS011;68476;42.710;23.388;2024-01-30T01:15:56;4.13;;;2.70;;
79074;SDS011;68476;42.710;23.388;2024-01-30T01:18:21;4.95;;;2.90;;
79074;SDS011;68476;42.710;23.388;2024-01-30T01:20:47;5.50;;;2.70;;
79074;SDS011;68476;42.710;23.388;2024-01-30T01:23:12;4.80;;;2.95;;
79074;SDS011;68476;42.710;23.388;2024-01-30T01:25:38;4.05;;;2.55;;
79074;SDS011;68476;42.710;23.388;2024-01-30T01:28:03;4.38;;;2.78;;
79074;SDS011;68476;42.710;23.388;2024-01-30T01:30:29;5.82;;;2.88;;
79074;SDS011;68476;42.710;23.388;2024-01-30T01:32:55;5.25;;;2.63;;
79074;SDS011;68476;42.710;23.388;2024-01-30T01:35:24;4.75;;;2.67;;
79074;SDS011;68476;42.710;23.388;2024-01-30T01:37:51;4.90;;;3.05;;
79074;SDS011;68476;42.710;23.388;2024-01-30T01:40:20;5.53;;;2.90;;
79074;SDS011;68476;42.710;23.388;2024-01-30T01:42:49;5.50;;;3.08;;
79074;SDS011;68476;42.710;23.388;2024-01-30T01:45:19;6.20;;;3.08;;
79074;SDS011;68476;42.710;23.388;2024-01-30T01:47:45;4.38;;;2.67;;
79074;SDS011;68476;42.710;23.388;2024-01-30T01:50:13;4.93;;;2.95;;
79074;SDS011;68476;42.710;23.388;2024-01-30T01:52:44;6.63;;;3.15;;
79074;SDS011;68476;42.710;23.388;2024-01-30T01:55:12;3.75;;;2.50;;
79074;SDS011;68476;42.710;23.388;2024-01-30T01:57:39;5.85;;;2.67;;
79074;SDS011;68476;42.710;23.388;2024-01-30T02:00:06;4.95;;;2.50;;
79074;SDS011;68476;42.710;23.388;2024-01-30T02:02:35;6.25;;;3.17;;
79074;SDS011;68476;42.710;23.388;2024-01-30T02:05:01;4.55;;;2.42;;
79074;SDS011;68476;42.710;23.388;2024-01-30T02:07:28;4.70;;;2.60;;
79074;SDS011;68476;42.710;23.388;2024-01-30T02:09:54;3.60;;;2.33;;
79074;SDS011;68476;42.710;23.388;2024-01-30T02:12:20;2.38;;;1.38;;
79074;SDS011;68476;42.710;23.388;2024-01-30T02:14:46;5.13;;;2.67;;
79074;SDS011;68476;42.710;23.388;2024-01-30T02:17:12;3.63;;;2.22;;
79074;SDS011;68476;42.710;23.388;2024-01-30T02:19:38;4.53;;;2.78;;
79074;SDS011;68476;42.710;23.388;2024-01-30T02:22:04;3.47;;;1.92;;
79074;SDS011;68476;42.710;23.388;2024-01-30T02:24:30;3.63;;;2.30;;
79074;SDS011;68476;42.710;23.388;2024-01-30T02:26:56;3.30;;;2.08;;
79074;SDS011;68476;42.710;23.388;2024-01-30T02:29:22;5.18;;;2.50;;
79074;SDS011;68476;42.710;23.388;2024-01-30T02:31:47;4.20;;;2.53;;
79074;SDS011;68476;42.710;23.388;2024-01-30T02:34:13;4.35;;;2.75;;
79074;SDS011;68476;42.710;23.388;2024-01-30T02:36:42;5.07;;;2.40;;
79074;SDS011;68476;42.710;23.388;2024-01-30T02:39:10;3.65;;;2.25;;
79074;SDS011;68476;42.710;23.388;2024-01-30T02:41:35;4.78;;;2.80;;
79074;SDS011;68476;42.710;23.388;2024-01-30T02:44:02;5.88;;;3.17;;
79074;SDS011;68476;42.710;23.388;2024-01-30T02:46:28;6.88;;;3.13;;
79074;SDS011;68476;42.710;23.388;2024-01-30T02:48:53;4.32;;;2.60;;
79074;SDS011;68476;42.710;23.388;2024-01-30T02:51:19;5.28;;;2.13;;
79074;SDS011;68476;42.710;23.388;2024-01-30T02:53:44;3.90;;;2.28;;
79074;SDS011;68476;42.710;23.388;2024-01-30T02:56:10;5.18;;;3.17;;
79074;SDS011;68476;42.710;23.388;2024-01-30T02:58:36;4.20;;;2.60;;
79074;SDS011;68476;42.710;23.388;2024-01-30T03:01:02;4.22;;;2.42;;
79074;SDS011;68476;42.710;23.388;2024-01-30T03:03:27;3.22;;;2.25;;
79074;SDS011;68476;42.710;23.388;2024-01-30T03:05:53;3.83;;;2.30;;
79074;SDS011;68476;42.710;23.388;2024-01-30T03:08:19;3.78;;;2.17;;
79074;SDS011;68476;42.710;23.388;2024-01-30T03:10:45;3.13;;;2.10;;
79074;SDS011;68476;42.710;23.388;2024-01-30T03:13:10;3.13;;;1.90;;
79074;SDS011;68476;42.710;23.388;2024-01-30T03:15:36;3.75;;;2.42;;
79074;SDS011;68476;42.710;23.388;2024-01-30T03:18:02;3.90;;;2.15;;
79074;SDS011;68476;42.710;23.388;2024-01-30T03:20:29;3.42;;;2.33;;
79074;SDS011;68476;42.710;23.388;2024-01-30T03:22:54;3.53;;;2.22;;
79074;SDS011;68476;42.710;23.388;2024-01-30T03:25:20;4.93;;;2.55;;
79074;SDS011;68476;42.710;23.388;2024-01-30T03:27:46;3.65;;;2.05;;
79074;SDS011;68476;42.710;23.388;2024-01-30T03:30:11;3.65;;;2.17;;
79074;SDS011;68476;42.710;23.388;2024-01-30T03:32:37;3.80;;;2.03;;
79074;SDS011;68476;42.710;23.388;2024-01-30T03:35:02;3.20;;;2.05;;
79074;SDS011;68476;42.710;23.388;2024-01-30T03:37:28;3.78;;;2.45;;
79074;SDS011;68476;42.710;23.388;2024-01-30T03:39:53;3.28;;;1.95;;
79074;SDS011;68476;42.710;23.388;2024-01-30T03:42:19;3.95;;;2.40;;
79074;SDS011;68476;42.710;23.388;2024-01-30T03:44:45;2.58;;;1.55;;
79074;SDS011;68476;42.710;23.388;2024-01-30T03:47:10;3.58;;;1.98;;
79074;SDS011;68476;42.710;23.388;2024-01-30T03:49:36;4.30;;;2.15;;
79074;SDS011;68476;42.710;23.388;2024-01-30T03:52:01;3.38;;;2.22;;
79074;SDS011;68476;42.710;23.388;2024-01-30T03:54:27;4.32;;;2.00;;
79074;SDS011;68476;42.710;23.388;2024-01-30T03:56:52;4.30;;;2.40;;
79074;SDS011;68476;42.710;23.388;2024-01-30T03:59:18;3.33;;;2.00;;
79074;SDS011;68476;42.710;23.388;2024-01-30T04:01:49;3.70;;;2.13;;
79074;SDS011;68476;42.710;23.388;2024-01-30T04:04:15;3.58;;;2.22;;
79074;SDS011;68476;42.710;23.388;2024-01-30T04:06:41;4.95;;;2.60;;
79074;SDS011;68476;42.710;23.388;2024-01-30T04:09:06;4.28;;;2.75;;
79074;SDS011;68476;42.710;23.388;2024-01-30T04:11:32;3.35;;;2.25;;
79074;SDS011;68476;42.710;23.388;2024-01-30T04:13:58;6.00;;;3.05;;
79074;SDS011;68476;42.710;23.388;2024-01-30T04:16:23;4.78;;;2.95;;
79074;SDS011;68476;42.710;23.388;2024-01-30T04:18:49;4.55;;;2.88;;
79074;SDS011;68476;42.710;23.388;2024-01-30T04:21:14;5.80;;;3.03;;
79074;SDS011;68476;42.710;23.388;2024-01-30T04:23:40;6.18;;;3.70;;
79074;SDS011;68476;42.710;23.388;2024-01-30T04:26:06;5.97;;;3.33;;
79074;SDS011;68476;42.710;23.388;2024-01-30T04:28:32;5.68;;;3.38;;
79074;SDS011;68476;42.710;23.388;2024-01-30T04:30:57;6.55;;;3.53;;
79074;SDS011;68476;42.710;23.388;2024-01-30T04:33:22;6.15;;;3.25;;
79074;SDS011;68476;42.710;23.388;2024-01-30T04:35:48;6.72;;;3.65;;
79074;SDS011;68476;42.710;23.388;2024-01-30T04:38:13;9.35;;;4.10;;
79074;SDS011;68476;42.710;23.388;2024-01-30T04:40:39;6.28;;;3.50;;
79074;SDS011;68476;42.710;23.388;2024-01-30T04:43:05;5.53;;;3.60;;
79074;SDS011;68476;42.710;23.388;2024-01-30T04:45:31;5.72;;;3.08;;
79074;SDS011;68476;42.710;23.388;2024-01-30T04:47:56;7.43;;;3.47;;
79074;SDS011;68476;42.710;23.388;2024-01-30T04:50:22;6.45;;;3.45;;
79074;SDS011;68476;42.710;23.388;2024-01-30T04:52:48;5.90;;;3.78;;
79074;SDS011;68476;42.710;23.388;2024-01-30T04:55:13;7.07;;;4.05;;
79074;SDS011;68476;42.710;23.388;2024-01-30T04:57:39;6.38;;;3.90;;
79074;SDS011;68476;42.710;23.388;2024-01-30T05:00:05;8.02;;;4.80;;
79074;SDS011;68476;42.710;23.388;2024-01-30T05:02:31;9.73;;;4.53;;
79074;SDS011;68476;42.710;23.388;2024-01-30T05:04:57;6.95;;;3.78;;
79074;SDS011;68476;42.710;23.388;2024-01-30T05:07:24;5.97;;;3.70;;
79074;SDS011;68476;42.710;23.388;2024-01-30T05:09:50;8.88;;;4.35;;
79074;SDS011;68476;42.710;23.388;2024-01-30T05:12:15;6.50;;;3.95;;
79074;SDS011;68476;42.710;23.388;2024-01-30T05:14:41;5.60;;;3.25;;
79074;SDS011;68476;42.710;23.388;2024-01-30T05:17:06;5.85;;;2.63;;
79074;SDS011;68476;42.710;23.388;2024-01-30T05:19:33;5.47;;;3.45;;
79074;SDS011;68476;42.710;23.388;2024-01-30T05:21:58;4.65;;;2.55;;
79074;SDS011;68476;42.710;23.388;2024-01-30T05:24:24;5.00;;;2.75;;
79074;SDS011;68476;42.710;23.388;2024-01-30T05:26:49;5.28;;;3.03;;
79074;SDS011;68476;42.710;23.388;2024-01-30T05:29:16;5.03;;;2.90;;
79074;SDS011;68476;42.710;23.388;2024-01-30T05:31:42;4.45;;;2.53;;
79074;SDS011;68476;42.710;23.388;2024-01-30T05:34:07;4.45;;;3.05;;
79074;SDS011;68476;42.710;23.388;2024-01-30T05:36:34;5.57;;;2.85;;
79074;SDS011;68476;42.710;23.388;2024-01-30T05:38:59;4.53;;;2.70;;
79074;SDS011;68476;42.710;23.388;2024-01-30T05:41:25;3.80;;;2.33;;
79074;SDS011;68476;42.710;23.388;2024-01-30T05:43:50;5.35;;;2.78;;
79074;SDS011;68476;42.710;23.388;2024-01-30T05:46:16;3.15;;;2.03;;
79074;SDS011;68476;42.710;23.388;2024-01-30T05:48:41;4.05;;;2.70;;
79074;SDS011;68476;42.710;23.388;2024-01-30T05:51:07;4.25;;;2.50;;
79074;SDS011;68476;42.710;23.388;2024-01-30T05:53:33;6.40;;;3.15;;
79074;SDS011;68476;42.710;23.388;2024-01-30T05:56:01;12.20;;;5.50;;
79074;SDS011;68476;42.710;23.388;2024-01-30T05:58:27;15.65;;;5.95;;
79074;SDS011;68476;42.710;23.388;2024-01-30T06:00:53;13.88;;;6.90;;
79074;SDS011;68476;42.710;23.388;2024-01-30T06:03:18;20.42;;;8.57;;
79074;SDS011;68476;42.710;23.388;2024-01-30T06:05:44;39.90;;;14.82;;
79074;SDS011;68476;42.710;23.388;2024-01-30T06:08:09;28.88;;;12.80;;
79074;SDS011;68476;42.710;23.388;2024-01-30T06:10:35;18.90;;;8.90;;
79074;SDS011;68476;42.710;23.388;2024-01-30T06:13:01;28.08;;;12.65;;
79074;SDS011;68476;42.710;23.388;2024-01-30T06:15:27;27.98;;;13.10;;
79074;SDS011;68476;42.710;23.388;2024-01-30T06:17:54;19.52;;;10.35;;
79074;SDS011;68476;42.710;23.388;2024-01-30T06:20:20;23.40;;;12.07;;
79074;SDS011;68476;42.710;23.388;2024-01-30T06:22:45;18.98;;;8.15;;
79074;SDS011;68476;42.710;23.388;2024-01-30T06:25:11;16.17;;;8.18;;
79074;SDS011;68476;42.710;23.388;2024-01-30T06:27:37;12.05;;;4.90;;
79074;SDS011;68476;42.710;23.388;2024-01-30T06:30:03;7.93;;;4.00;;
79074;SDS011;68476;42.710;23.388;2024-01-30T06:32:29;9.88;;;6.32;;
79074;SDS011;68476;42.710;23.388;2024-01-30T06:34:59;17.25;;;6.30;;
79074;SDS011;68476;42.710;23.388;2024-01-30T06:37:25;8.80;;;5.93;;
79074;SDS011;68476;42.710;23.388;2024-01-30T06:39:50;9.57;;;5.00;;
79074;SDS011;68476;42.710;23.388;2024-01-30T06:42:17;11.43;;;5.57;;
79074;SDS011;68476;42.710;23.388;2024-01-30T06:44:43;6.88;;;4.75;;
79074;SDS011;68476;42.710;23.388;2024-01-30T06:47:09;17.08;;;8.70;;
79074;SDS011;68476;42.710;23.388;2024-01-30T06:49:34;21.05;;;11.57;;
79074;SDS011;68476;42.710;23.388;2024-01-30T06:52:00;14.23;;;9.60;;
79074;SDS011;68476;42.710;23.388;2024-01-30T06:54:25;12.82;;;7.72;;
79074;SDS011;68476;42.710;23.388;2024-01-30T06:56:51;13.70;;;7.57;;
79074;SDS011;68476;42.710;23.388;2024-01-30T06:59:16;17.23;;;8.48;;
79074;SDS011;68476;42.710;23.388;2024-01-30T07:01:42;20.42;;;10.63;;
79074;SDS011;68476;42.710;23.388;2024-01-30T07:04:07;4.88;;;3.33;;
79074;SDS011;68476;42.710;23.388;2024-01-30T07:06:32;8.25;;;4.18;;
79074;SDS011;68476;42.710;23.388;2024-01-30T07:08:58;8.50;;;4.45;;
79074;SDS011;68476;42.710;23.388;2024-01-30T07:11:23;8.30;;;4.75;;
79074;SDS011;68476;42.710;23.388;2024-01-30T07:13:52;7.78;;;4.88;;
79074;SDS011;68476;42.710;23.388;2024-01-30T07:16:18;6.70;;;3.55;;
79074;SDS011;68476;42.710;23.388;2024-01-30T07:18:48;9.23;;;5.40;;
79074;SDS011;68476;42.710;23.388;2024-01-30T07:21:16;6.97;;;5.15;;
79074;SDS011;68476;42.710;23.388;2024-01-30T07:23:42;11.77;;;6.55;;
79074;SDS011;68476;42.710;23.388;2024-01-30T07:26:08;6.28;;;2.72;;
79074;SDS011;68476;42.710;23.388;2024-01-30T07:28:34;8.90;;;4.43;;
79074;SDS011;68476;42.710;23.388;2024-01-30T07:31:00;8.05;;;4.00;;
79074;SDS011;68476;42.710;23.388;2024-01-30T07:33:27;8.57;;;4.53;;
79074;SDS011;68476;42.710;23.388;2024-01-30T07:35:52;9.00;;;5.32;;
79074;SDS011;68476;42.710;23.388;2024-01-30T07:38:18;7.32;;;4.50;;
79074;SDS011;68476;42.710;23.388;2024-01-30T07:40:44;8.45;;;4.85;;
79074;SDS011;68476;42.710;23.388;2024-01-30T07:43:10;9.55;;;4.70;;
79074;SDS011;68476;42.710;23.388;2024-01-30T07:45:35;7.30;;;4.47;;
79074;SDS011;68476;42.710;23.388;2024-01-30T07:48:02;5.30;;;2.55;;
79074;SDS011;68476;42.710;23.388;2024-01-30T07:50:28;4.50;;;2.95;;
79074;SDS011;68476;42.710;23.388;2024-01-30T07:52:55;6.18;;;3.60;;
79074;SDS011;68476;42.710;23.388;2024-01-30T07:55:21;9.35;;;3.45;;
79074;SDS011;68476;42.710;23.388;2024-01-30T07:57:51;7.28;;;2.92;;
79074;SDS011;68476;42.710;23.388;2024-01-30T08:00:17;6.07;;;3.28;;
79074;SDS011;68476;42.710;23.388;2024-01-30T08:02:44;5.95;;;3.92;;
79074;SDS011;68476;42.710;23.388;2024-01-30T08:05:10;5.53;;;3.30;;
79074;SDS011;68476;42.710;23.388;2024-01-30T08:07:36;6.88;;;3.88;;
79074;SDS011;68476;42.710;23.388;2024-01-30T08:10:02;11.30;;;4.40;;
79074;SDS011;68476;42.710;23.388;2024-01-30T08:12:28;6.97;;;3.88;;
79074;SDS011;68476;42.710;23.388;2024-01-30T08:14:54;5.32;;;3.50;;
79074;SDS011;68476;42.710;23.388;2024-01-30T08:17:19;13.27;;;7.20;;
79074;SDS011;68476;42.710;23.388;2024-01-30T08:19:45;7.03;;;4.35;;
79074;SDS011;68476;42.710;23.388;2024-01-30T08:22:11;6.07;;;3.38;;
79074;SDS011;68476;42.710;23.388;2024-01-30T08:24:37;6.47;;;3.22;;
79074;SDS011;68476;42.710;23.388;2024-01-30T08:27:05;5.43;;;3.25;;
79074;SDS011;68476;42.710;23.388;2024-01-30T08:29:31;5.47;;;3.40;;
79074;SDS011;68476;42.710;23.388;2024-01-30T08:31:57;4.57;;;2.60;;
79074;SDS011;68476;42.710;23.388;2024-01-30T08:34:24;5.75;;;3.60;;
79074;SDS011;68476;42.710;23.388;2024-01-30T08:36:49;5.63;;;3.10;;
79074;SDS011;68476;42.710;23.388;2024-01-30T08:39:15;5.25;;;3.13;;
79074;SDS011;68476;42.710;23.388;2024-01-30T08:41:40;5.38;;;3.10;;
79074;SDS011;68476;42.710;23.388;2024-01-30T08:44:06;6.95;;;3.50;;
79074;SDS011;68476;42.710;23.388;2024-01-30T08:46:32;10.02;;;4.10;;
79074;SDS011;68476;42.710;23.388;2024-01-30T08:48:59;8.68;;;3.60;;
79074;SDS011;68476;42.710;23.388;2024-01-30T08:51:24;5.82;;;3.40;;
79074;SDS011;68476;42.710;23.388;2024-01-30T08:53:49;7.38;;;3.80;;
79074;SDS011;68476;42.710;23.388;2024-01-30T08:56:15;5.93;;;3.33;;
79074;SDS011;68476;42.710;23.388;2024-01-30T08:58:41;4.88;;;3.08;;
79074;SDS011;68476;42.710;23.388;2024-01-30T09:01:07;5.95;;;2.88;;
79074;SDS011;68476;42.710;23.388;2024-01-30T09:03:32;4.25;;;2.38;;
79074;SDS011;68476;42.710;23.388;2024-01-30T09:05:58;3.60;;;2.35;;
79074;SDS011;68476;42.710;23.388;2024-01-30T09:08:23;4.00;;;2.15;;
79074;SDS011;68476;42.710;23.388;2024-01-30T09:10:49;4.90;;;2.53;;
79074;SDS011;68476;42.710;23.388;2024-01-30T09:13:15;4.88;;;2.53;;
79074;SDS011;68476;42.710;23.388;2024-01-30T09:15:41;4.75;;;2.35;;
79074;SDS011;68476;42.710;23.388;2024-01-30T09:18:07;3.00;;;2.22;;
79074;SDS011;68476;42.710;23.388;2024-01-30T09:20:32;3.20;;;2.20;;
79074;SDS011;68476;42.710;23.388;2024-01-30T09:22:58;3.70;;;2.28;;
79074;SDS011;68476;42.710;23.388;2024-01-30T09:25:23;3.63;;;2.30;;
79074;SDS011;68476;42.710;23.388;2024-01-30T09:27:49;3.72;;;2.30;;
79074;SDS011;68476;42.710;23.388;2024-01-30T09:30:15;4.13;;;2.33;;
79074;SDS011;68476;42.710;23.388;2024-01-30T09:32:40;4.07;;;2.58;;
79074;SDS011;68476;42.710;23.388;2024-01-30T09:35:07;3.95;;;2.70;;
79074;SDS011;68476;42.710;23.388;2024-01-30T09:37:33;5.43;;;3.28;;
79074;SDS011;68476;42.710;23.388;2024-01-30T09:39:58;4.07;;;2.75;;
79074;SDS011;68476;42.710;23.388;2024-01-30T09:42:26;4.80;;;3.22;;
79074;SDS011;68476;42.710;23.388;2024-01-30T09:44:58;5.43;;;2.70;;
79074;SDS011;68476;42.710;23.388;2024-01-30T09:47:23;6.78;;;3.22;;
79074;SDS011;68476;42.710;23.388;2024-01-30T09:49:49;16.92;;;3.83;;
79074;SDS011;68476;42.710;23.388;2024-01-30T09:52:16;4.70;;;2.97;;
79074;SDS011;68476;42.710;23.388;2024-01-30T09:54:41;4.35;;;2.60;;
79074;SDS011;68476;42.710;23.388;2024-01-30T09:57:08;7.85;;;2.90;;
79074;SDS011;68476;42.710;23.388;2024-01-30T09:59:34;7.15;;;2.63;;
79074;SDS011;68476;42.710;23.388;2024-01-30T10:02:00;4.13;;;3.05;;
79074;SDS011;68476;42.710;23.388;2024-01-30T10:04:25;5.95;;;4.40;;
79074;SDS011;68476;42.710;23.388;2024-01-30T10:06:51;4.75;;;2.70;;
79074;SDS011;68476;42.710;23.388;2024-01-30T10:09:16;4.78;;;3.47;;
79074;SDS011;68476;42.710;23.388;2024-01-30T10:11:42;5.47;;;2.67;;
79074;SDS011;68476;42.710;23.388;2024-01-30T10:14:07;3.47;;;2.38;;
79074;SDS011;68476;42.710;23.388;2024-01-30T10:16:34;3.95;;;2.67;;
79074;SDS011;68476;42.710;23.388;2024-01-30T10:19:00;4.35;;;2.95;;
79074;SDS011;68476;42.710;23.388;2024-01-30T10:21:25;3.10;;;1.95;;
79074;SDS011;68476;42.710;23.388;2024-01-30T10:23:51;11.00;;;4.38;;
79074;SDS011;68476;42.710;23.388;2024-01-30T10:26:16;3.75;;;2.60;;
79074;SDS011;68476;42.710;23.388;2024-01-30T10:28:45;4.57;;;2.50;;
79074;SDS011;68476;42.710;23.388;2024-01-30T10:31:10;4.88;;;2.42;;
79074;SDS011;68476;42.710;23.388;2024-01-30T10:33:36;3.95;;;2.22;;
79074;SDS011;68476;42.710;23.388;2024-01-30T10:36:02;3.95;;;2.38;;
79074;SDS011;68476;42.710;23.388;2024-01-30T10:38:29;2.90;;;2.00;;
79074;SDS011;68476;42.710;23.388;2024-01-30T10:40:59;4.40;;;2.30;;
79074;SDS011;68476;42.710;23.388;2024-01-30T10:43:32;3.42;;;2.08;;
79074;SDS011;68476;42.710;23.388;2024-01-30T10:46:11;4.80;;;2.42;;
79074;SDS011;68476;42.710;23.388;2024-01-30T10:48:46;4.10;;;2.28;;
79074;SDS011;68476;42.710;23.388;2024-01-30T10:51:19;3.75;;;2.53;;
79074;SDS011;68476;42.710;23.388;2024-01-30T10:53:47;4.78;;;2.70;;
79074;SDS011;68476;42.710;23.388;2024-01-30T10:56:14;4.40;;;2.30;;
79074;SDS011;68476;42.710;23.388;2024-01-30T10:58:42;3.63;;;2.20;;
79074;SDS011;68476;42.710;23.388;2024-01-30T11:01:07;4.78;;;2.90;;
79074;SDS011;68476;42.710;23.388;2024-01-30T11:03:33;2.85;;;2.17;;
79074;SDS011;68476;42.710;23.388;2024-01-30T11:06:01;3.28;;;2.20;;
79074;SDS011;68476;42.710;23.388;2024-01-30T11:08:27;3.85;;;2.60;;
79074;SDS011;68476;42.710;23.388;2024-01-30T11:10:56;3.63;;;2.60;;
79074;SDS011;68476;42.710;23.388;2024-01-30T11:13:29;4.45;;;2.65;;
79074;SDS011;68476;42.710;23.388;2024-01-30T11:15:55;4.85;;;2.47;;
79074;SDS011;68476;42.710;23.388;2024-01-30T11:18:29;3.67;;;2.30;;
79074;SDS011;68476;42.710;23.388;2024-01-30T11:20:56;3.95;;;2.13;;
79074;SDS011;68476;42.710;23.388;2024-01-30T11:23:23;4.43;;;2.50;;
79074;SDS011;68476;42.710;23.388;2024-01-30T11:25:48;3.88;;;2.42;;
79074;SDS011;68476;42.710;23.388;2024-01-30T11:28:14;4.50;;;2.42;;
79074;SDS011;68476;42.710;23.388;2024-01-30T11:33:10;3.28;;;2.30;;
79074;SDS011;68476;42.710;23.388;2024-01-30T11:35:41;3.72;;;2.50;;
79074;SDS011;68476;42.710;23.388;2024-01-30T11:38:08;4.03;;;2.78;;
79074;SDS011;68476;42.710;23.388;2024-01-30T11:40:36;4.70;;;2.88;;
79074;SDS011;68476;42.710;23.388;2024-01-30T11:43:03;5.88;;;2.65;;
79074;SDS011;68476;42.710;23.388;2024-01-30T11:45:31;6.80;;;2.90;;
79074;SDS011;68476;42.710;23.388;2024-01-30T11:47:57;3.88;;;2.60;;
79074;SDS011;68476;42.710;23.388;2024-01-30T11:50:31;4.93;;;2.33;;
79074;SDS011;68476;42.710;23.388;2024-01-30T11:52:58;6.53;;;3.13;;
79074;SDS011;68476;42.710;23.388;2024-01-30T11:55:24;3.70;;;2.50;;
79074;SDS011;68476;42.710;23.388;2024-01-30T11:57:50;4.20;;;2.20;;
79074;SDS011;68476;42.710;23.388;2024-01-30T12:00:16;5.43;;;3.10;;
79074;SDS011;68476;42.710;23.388;2024-01-30T12:02:50;4.85;;;2.40;;
79074;SDS011;68476;42.710;23.388;2024-01-30T12:05:25;4.43;;;2.63;;
79074;SDS011;68476;42.710;23.388;2024-01-30T12:07:51;3.88;;;2.45;;
79074;SDS011;68476;42.710;23.388;2024-01-30T12:10:17;4.50;;;2.78;;
79074;SDS011;68476;42.710;23.388;2024-01-30T12:12:46;4.32;;;3.17;;
79074;SDS011;68476;42.710;23.388;2024-01-30T12:15:13;4.45;;;2.55;;
79074;SDS011;68476;42.710;23.388;2024-01-30T12:17:39;4.78;;;2.95;;
79074;SDS011;68476;42.710;23.388;2024-01-30T12:20:05;7.72;;;2.90;;
79074;SDS011;68476;42.710;23.388;2024-01-30T12:22:37;3.88;;;2.53;;
79074;SDS011;68476;42.710;23.388;2024-01-30T12:25:05;4.45;;;3.05;;
79074;SDS011;68476;42.710;23.388;2024-01-30T12:27:33;5.32;;;2.72;;
79074;SDS011;68476;42.710;23.388;2024-01-30T12:29:59;4.30;;;3.33;;
79074;SDS011;68476;42.710;23.388;2024-01-30T12:32:24;3.95;;;2.90;;
79074;SDS011;68476;42.710;23.388;2024-01-30T12:34:50;4.03;;;2.85;;
79074;SDS011;68476;42.710;23.388;2024-01-30T12:37:15;4.63;;;3.47;;
79074;SDS011;68476;42.710;23.388;2024-01-30T12:39:47;4.75;;;3.30;;
79074;SDS011;68476;42.710;23.388;2024-01-30T12:42:14;4.63;;;2.83;;
79074;SDS011;68476;42.710;23.388;2024-01-30T12:44:40;5.07;;;3.40;;
79074;SDS011;68476;42.710;23.388;2024-01-30T12:47:08;4.85;;;3.17;;
79074;SDS011;68476;42.710;23.388;2024-01-30T12:49:34;4.30;;;3.08;;
79074;SDS011;68476;42.710;23.388;2024-01-30T12:52:00;4.47;;;3.00;;
79074;SDS011;68476;42.710;23.388;2024-01-30T12:54:25;4.90;;;3.20;;
79074;SDS011;68476;42.710;23.388;2024-01-30T12:56:51;6.28;;;2.90;;
79074;SDS011;68476;42.710;23.388;2024-01-30T12:59:19;11.85;;;3.85;;
79074;SDS011;68476;42.710;23.388;2024-01-30T13:01:48;4.50;;;3.40;;
79074;SDS011;68476;42.710;23.388;2024-01-30T13:04:13;5.20;;;3.40;;
79074;SDS011;68476;42.710;23.388;2024-01-30T13:06:40;4.47;;;2.92;;
79074;SDS011;68476;42.710;23.388;2024-01-30T13:09:06;4.38;;;3.03;;
79074;SDS011;68476;42.710;23.388;2024-01-30T13:11:31;4.75;;;3.25;;
79074;SDS011;68476;42.710;23.388;2024-01-30T13:13:57;4.90;;;3.20;;
79074;SDS011;68476;42.710;23.388;2024-01-30T13:16:22;6.85;;;3.25;;
79074;SDS011;68476;42.710;23.388;2024-01-30T13:18:48;4.55;;;3.30;;
79074;SDS011;68476;42.710;23.388;2024-01-30T13:21:14;6.00;;;3.10;;
79074;SDS011;68476;42.710;23.388;2024-01-30T13:23:39;4.97;;;3.40;;
79074;SDS011;68476;42.710;23.388;2024-01-30T13:26:05;4.22;;;3.10;;
79074;SDS011;68476;42.710;23.388;2024-01-30T13:28:31;5.32;;;3.10;;
79074;SDS011;68476;42.710;23.388;2024-01-30T13:30:57;6.05;;;4.00;;
79074;SDS011;68476;42.710;23.388;2024-01-30T13:33:22;6.40;;;3.50;;
79074;SDS011;68476;42.710;23.388;2024-01-30T13:35:48;4.85;;;3.50;;
79074;SDS011;68476;42.710;23.388;2024-01-30T13:38:13;5.18;;;3.38;;
79074;SDS011;68476;42.710;23.388;2024-01-30T13:40:40;7.03;;;3.60;;
79074;SDS011;68476;42.710;23.388;2024-01-30T13:43:05;5.57;;;3.60;;
79074;SDS011;68476;42.710;23.388;2024-01-30T13:45:31;5.03;;;3.28;;
79074;SDS011;68476;42.710;23.388;2024-01-30T13:47:56;6.03;;;3.63;;
79074;SDS011;68476;42.710;23.388;2024-01-30T13:50:22;5.22;;;3.50;;
79074;SDS011;68476;42.710;23.388;2024-01-30T13:52:48;6.53;;;3.50;;
79074;SDS011;68476;42.710;23.388;2024-01-30T13:55:13;11.93;;;3.95;;
79074;SDS011;68476;42.710;23.388;2024-01-30T13:57:39;6.35;;;3.47;;
79074;SDS011;68476;42.710;23.388;2024-01-30T14:00:05;4.80;;;3.38;;
79074;SDS011;68476;42.710;23.388;2024-01-30T14:02:31;8.30;;;3.65;;
79074;SDS011;68476;42.710;23.388;2024-01-30T14:04:57;4.88;;;3.40;;
79074;SDS011;68476;42.710;23.388;2024-01-30T14:07:22;5.40;;;3.67;;
79074;SDS011;68476;42.710;23.388;2024-01-30T14:09:48;6.82;;;3.35;;
79074;SDS011;68476;42.710;23.388;2024-01-30T14:12:14;9.70;;;3.45;;
79074;SDS011;68476;42.710;23.388;2024-01-30T14:14:40;5.82;;;3.50;;
79074;SDS011;68476;42.710;23.388;2024-01-30T14:17:06;5.40;;;3.53;;
79074;SDS011;68476;42.710;23.388;2024-01-30T14:19:35;5.88;;;3.45;;
79074;SDS011;68476;42.710;23.388;2024-01-30T14:22:01;5.43;;;3.60;;
79074;SDS011;68476;42.710;23.388;2024-01-30T14:24:27;5.07;;;3.25;;
79074;SDS011;68476;42.710;23.388;2024-01-30T14:26:52;5.55;;;3.50;;
79074;SDS011;68476;42.710;23.388;2024-01-30T14:29:18;6.35;;;3.45;;